sensor_id;sensor_type;location;lat;lon;timestamp;pressure;altitude;pressure_sealevel;temperature;humidity
33496;BME280;19836;55.812;37.560;2024-03-17T00:00:03;99833.78;;;3.57;57.21
33496;BME280;19836;55.812;37.560;2024-03-17T00:02:31;99822.31;;;3.57;56.92
33496;BME280;19836;55.812;37.560;2024-03-17T00:04:57;99825.84;;;3.53;57.16
33496;BME280;19836;55.812;37.560;2024-03-17T00:07:23;99821.41;;;3.55;57.18
33496;BME280;19836;55.812;37.560;2024-03-17T00:09:49;99824.94;;;3.52;57.29
33496;BME280;19836;55.812;37.560;2024-03-17T00:12:14;99824.97;;;3.48;57.30
33496;BME280;19836;55.812;37.560;2024-03-17T00:14:40;99820.53;;;3.50;57.44
33496;BME280;19836;55.812;37.560;2024-03-17T00:17:08;99822.31;;;3.48;57.45
33496;BME280;19836;55.812;37.560;2024-03-17T00:19:34;99822.31;;;3.42;57.65
33496;BME280;19836;55.812;37.560;2024-03-17T00:22:00;99814.38;;;3.39;57.70
33496;BME280;19836;55.812;37.560;2024-03-17T00:24:26;99820.56;;;3.38;57.79
33496;BME280;19836;55.812;37.560;2024-03-17T00:26:53;99813.50;;;3.43;58.06
33496;BME280;19836;55.812;37.560;2024-03-17T00:29:19;99808.19;;;3.40;57.86
33496;BME280;19836;55.812;37.560;2024-03-17T00:31:45;99815.25;;;3.38;58.09
33496;BME280;19836;55.812;37.560;2024-03-17T00:34:11;99807.31;;;3.38;58.29
33496;BME280;19836;55.812;37.560;2024-03-17T00:36:37;99808.19;;;3.35;58.18
33496;BME280;19836;55.812;37.560;2024-03-17T00:39:03;99809.94;;;3.35;58.02
33496;BME280;19836;55.812;37.560;2024-03-17T00:41:29;99802.91;;;3.34;58.16
33496;BME280;19836;55.812;37.560;2024-03-17T00:43:55;99807.31;;;3.29;58.44
33496;BME280;19836;55.812;37.560;2024-03-17T00:46:21;99803.78;;;3.28;58.46
33496;BME280;19836;55.812;37.560;2024-03-17T00:48:50;99812.59;;;3.26;58.43
33496;BME280;19836;55.812;37.560;2024-03-17T00:51:16;99804.66;;;3.26;58.54
33496;BME280;19836;55.812;37.560;2024-03-17T00:53:42;99805.56;;;3.26;58.72
33496;BME280;19836;55.812;37.560;2024-03-17T00:56:08;99799.38;;;3.29;58.79
33496;BME280;19836;55.812;37.560;2024-03-17T00:58:34;99797.59;;;3.25;58.66
33496;BME280;19836;55.812;37.560;2024-03-17T01:01:00;99799.38;;;3.20;58.66
33496;BME280;19836;55.812;37.560;2024-03-17T01:03:27;99797.59;;;3.16;58.95
33496;BME280;19836;55.812;37.560;2024-03-17T01:05:53;99794.94;;;3.16;58.96
33496;BME280;19836;55.812;37.560;2024-03-17T01:08:20;99791.44;;;3.14;59.12
33496;BME280;19836;55.812;37.560;2024-03-17T01:10:47;99792.31;;;3.10;58.93
33496;BME280;19836;55.812;37.560;2024-03-17T01:13:15;99794.97;;;3.11;59.23
33496;BME280;19836;55.812;37.560;2024-03-17T01:15:41;99783.47;;;3.12;59.27
33496;BME280;19836;55.812;37.560;2024-03-17T01:18:07;99785.25;;;3.09;59.38
33496;BME280;19836;55.812;37.560;2024-03-17T01:20:38;99781.75;;;3.07;59.31
33496;BME280;19836;55.812;37.560;2024-03-17T01:23:04;99790.56;;;3.03;59.55
33496;BME280;19836;55.812;37.560;2024-03-17T01:25:30;99788.78;;;3.02;59.45
33496;BME280;19836;55.812;37.560;2024-03-17T01:28:04;99792.28;;;3.01;59.66
33496;BME280;19836;55.812;37.560;2024-03-17T01:30:30;99794.94;;;3.02;59.64
33496;BME280;19836;55.812;37.560;2024-03-17T01:32:58;99782.59;;;3.01;59.93
33496;BME280;19836;55.812;37.560;2024-03-17T01:35:27;99778.19;;;3.00;59.84
33496;BME280;19836;55.812;37.560;2024-03-17T01:37:53;99777.31;;;3.00;60.26
33496;BME280;19836;55.812;37.560;2024-03-17T01:40:19;99773.81;;;2.99;60.20
33496;BME280;19836;55.812;37.560;2024-03-17T01:42:46;99769.38;;;3.00;60.10
33496;BME280;19836;55.812;37.560;2024-03-17T01:45:30;99767.63;;;3.02;60.24
33496;BME280;19836;55.812;37.560;2024-03-17T01:47:57;99773.78;;;2.98;60.19
33496;BME280;19836;55.812;37.560;2024-03-17T01:50:30;99777.31;;;2.97;60.60
33496;BME280;19836;55.812;37.560;2024-03-17T01:53:01;99779.09;;;2.90;60.63
33496;BME280;19836;55.812;37.560;2024-03-17T01:55:27;99771.13;;;2.93;60.52
33496;BME280;19836;55.812;37.560;2024-03-17T01:57:54;99766.75;;;2.95;60.82
33496;BME280;19836;55.812;37.560;2024-03-17T02:00:20;99764.97;;;2.93;60.73
33496;BME280;19836;55.812;37.560;2024-03-17T02:02:47;99761.41;;;2.91;60.95
33496;BME280;19836;55.812;37.560;2024-03-17T02:05:13;99756.16;;;2.89;61.20
33496;BME280;19836;55.812;37.560;2024-03-17T02:07:39;99755.25;;;2.89;61.12
33496;BME280;19836;55.812;37.560;2024-03-17T02:10:06;99757.03;;;2.93;61.14
33496;BME280;19836;55.812;37.560;2024-03-17T02:12:40;99753.47;;;2.91;61.11
33496;BME280;19836;55.812;37.560;2024-03-17T02:15:07;99748.19;;;2.86;61.49
33496;BME280;19836;55.812;37.560;2024-03-17T02:17:33;99755.25;;;2.83;61.37
33496;BME280;19836;55.812;37.560;2024-03-17T02:20:00;99752.59;;;2.80;61.74
33496;BME280;19836;55.812;37.560;2024-03-17T02:22:27;99756.16;;;2.74;61.44
33496;BME280;19836;55.812;37.560;2024-03-17T02:24:56;99758.78;;;2.73;62.01
33496;BME280;19836;55.812;37.560;2024-03-17T02:27:22;99750.81;;;2.70;62.41
33496;BME280;19836;55.812;37.560;2024-03-17T02:29:48;99747.28;;;2.71;62.13
33496;BME280;19836;55.812;37.560;2024-03-17T02:32:14;99742.91;;;2.70;62.00
33496;BME280;19836;55.812;37.560;2024-03-17T02:34:40;99744.66;;;2.71;62.52
33496;BME280;19836;55.812;37.560;2024-03-17T02:37:07;99746.44;;;2.69;62.62
33496;BME280;19836;55.812;37.560;2024-03-17T02:39:34;99742.91;;;2.67;62.83
33496;BME280;19836;55.812;37.560;2024-03-17T02:42:04;99742.91;;;2.70;62.67
33496;BME280;19836;55.812;37.560;2024-03-17T02:44:31;99732.31;;;2.70;62.46
33496;BME280;19836;55.812;37.560;2024-03-17T02:46:58;99725.28;;;2.72;63.13
33496;BME280;19836;55.812;37.560;2024-03-17T02:49:28;99725.28;;;2.72;62.89
33496;BME280;19836;55.812;37.560;2024-03-17T02:52:01;99734.09;;;2.68;63.03
33496;BME280;19836;55.812;37.560;2024-03-17T02:54:27;99727.03;;;2.62;63.10
33496;BME280;19836;55.812;37.560;2024-03-17T02:56:53;99726.16;;;2.62;63.08
33496;BME280;19836;55.812;37.560;2024-03-17T02:59:19;99725.25;;;2.58;62.91
33496;BME280;19836;55.812;37.560;2024-03-17T03:01:44;99734.09;;;2.56;62.96
33496;BME280;19836;55.812;37.560;2024-03-17T03:04:11;99727.03;;;2.52;63.31
33496;BME280;19836;55.812;37.560;2024-03-17T03:06:37;99719.09;;;2.50;63.50
33496;BME280;19836;55.812;37.560;2024-03-17T03:09:04;99732.31;;;2.52;63.42
33496;BME280;19836;55.812;37.560;2024-03-17T03:11:38;99731.41;;;2.51;63.51
33496;BME280;19836;55.812;37.560;2024-03-17T03:14:05;99731.41;;;2.50;63.56
33496;BME280;19836;55.812;37.560;2024-03-17T03:16:31;99728.78;;;2.48;63.55
33496;BME280;19836;55.812;37.560;2024-03-17T03:18:57;99718.22;;;2.48;63.50
33496;BME280;19836;55.812;37.560;2024-03-17T03:21:23;99732.31;;;2.52;63.75
33496;BME280;19836;55.812;37.560;2024-03-17T03:23:49;99718.19;;;2.50;63.86
33496;BME280;19836;55.812;37.560;2024-03-17T03:26:15;99709.41;;;2.51;64.24
33496;BME280;19836;55.812;37.560;2024-03-17T03:28:40;99716.44;;;2.49;64.29
33496;BME280;19836;55.812;37.560;2024-03-17T03:31:10;99709.41;;;2.51;64.20
33496;BME280;19836;55.812;37.560;2024-03-17T03:33:42;99714.69;;;2.48;64.15
33496;BME280;19836;55.812;37.560;2024-03-17T03:36:12;99707.63;;;2.45;64.19
33496;BME280;19836;55.812;37.560;2024-03-17T03:38:38;99707.63;;;2.47;64.12
33496;BME280;19836;55.812;37.560;2024-03-17T03:41:14;99712.91;;;2.44;64.21
33496;BME280;19836;55.812;37.560;2024-03-17T03:43:41;99711.13;;;2.41;64.00
33496;BME280;19836;55.812;37.560;2024-03-17T03:46:07;99705.84;;;2.40;64.29
33496;BME280;19836;55.812;37.560;2024-03-17T03:48:34;99706.72;;;2.40;64.16
33496;BME280;19836;55.812;37.560;2024-03-17T03:51:07;99707.63;;;2.41;64.50
33496;BME280;19836;55.812;37.560;2024-03-17T03:53:33;99704.09;;;2.42;64.37
33496;BME280;19836;55.812;37.560;2024-03-17T03:56:02;99707.59;;;2.42;64.57
33496;BME280;19836;55.812;37.560;2024-03-17T03:58:35;99712.03;;;2.43;64.42
33496;BME280;19836;55.812;37.560;2024-03-17T04:01:05;99700.56;;;2.40;64.52
33496;BME280;19836;55.812;37.560;2024-03-17T04:03:32;99698.78;;;2.39;63.96
33496;BME280;19836;55.812;37.560;2024-03-17T04:06:06;99696.13;;;2.37;64.65
33496;BME280;19836;55.812;37.560;2024-03-17T04:08:37;99697.91;;;2.37;64.56
33496;BME280;19836;55.812;37.560;2024-03-17T04:11:03;99704.09;;;2.39;64.62
33496;BME280;19836;55.812;37.560;2024-03-17T04:13:30;99697.91;;;2.40;64.28
33496;BME280;19836;55.812;37.560;2024-03-17T04:15:57;99697.06;;;2.41;64.33
33496;BME280;19836;55.812;37.560;2024-03-17T04:18:27;99701.47;;;2.42;64.57
33496;BME280;19836;55.812;37.560;2024-03-17T04:20:58;99697.94;;;2.44;64.65
33496;BME280;19836;55.812;37.560;2024-03-17T04:23:27;99692.63;;;2.47;64.48
33496;BME280;19836;55.812;37.560;2024-03-17T04:25:53;99693.53;;;2.48;64.66
33496;BME280;19836;55.812;37.560;2024-03-17T04:28:19;99692.63;;;2.47;64.68
33496;BME280;19836;55.812;37.560;2024-03-17T04:30:45;99687.34;;;2.50;64.46
33496;BME280;19836;55.812;37.560;2024-03-17T04:33:15;99685.59;;;2.52;64.64
33496;BME280;19836;55.812;37.560;2024-03-17T04:35:42;99682.94;;;2.55;64.79
33496;BME280;19836;55.812;37.560;2024-03-17T04:38:09;99680.28;;;2.58;64.57
33496;BME280;19836;55.812;37.560;2024-03-17T04:40:39;99680.28;;;2.60;64.32
33496;BME280;19836;55.812;37.560;2024-03-17T04:43:06;99685.59;;;2.61;64.68
33496;BME280;19836;55.812;37.560;2024-03-17T04:45:31;99685.59;;;2.69;64.49
33496;BME280;19836;55.812;37.560;2024-03-17T04:47:57;99681.19;;;2.77;64.69
33496;BME280;19836;55.812;37.560;2024-03-17T04:50:23;99681.19;;;2.83;64.75
33496;BME280;19836;55.812;37.560;2024-03-17T04:52:49;99680.31;;;2.87;64.45
33496;BME280;19836;55.812;37.560;2024-03-17T04:55:16;99684.69;;;2.94;64.42
33496;BME280;19836;55.812;37.560;2024-03-17T04:57:44;99677.63;;;2.99;64.23
33496;BME280;19836;55.812;37.560;2024-03-17T05:00:10;99681.16;;;3.01;64.24
33496;BME280;19836;55.812;37.560;2024-03-17T05:02:40;99667.94;;;3.05;63.84
33496;BME280;19836;55.812;37.560;2024-03-17T05:05:06;99674.09;;;3.07;63.99
33496;BME280;19836;55.812;37.560;2024-03-17T05:07:34;99681.16;;;3.13;64.03
33496;BME280;19836;55.812;37.560;2024-03-17T05:10:01;99681.13;;;3.19;63.80
33496;BME280;19836;55.812;37.560;2024-03-17T05:12:27;99679.38;;;3.25;63.70
33496;BME280;19836;55.812;37.560;2024-03-17T05:14:54;99680.22;;;3.29;63.75
33496;BME280;19836;55.812;37.560;2024-03-17T05:17:19;99681.09;;;3.34;63.58
33496;BME280;19836;55.812;37.560;2024-03-17T05:19:45;99681.09;;;3.40;63.62
33496;BME280;19836;55.812;37.560;2024-03-17T05:22:11;99689.91;;;3.45;63.52
33496;BME280;19836;55.812;37.560;2024-03-17T05:24:37;99689.88;;;3.51;63.51
33496;BME280;19836;55.812;37.560;2024-03-17T05:27:03;99698.69;;;3.56;63.34
33496;BME280;19836;55.812;37.560;2024-03-17T05:29:29;99695.16;;;3.61;62.99
33496;BME280;19836;55.812;37.560;2024-03-17T05:31:56;99686.28;;;3.70;63.26
33496;BME280;19836;55.812;37.560;2024-03-17T05:34:22;99691.53;;;3.76;63.03
33496;BME280;19836;55.812;37.560;2024-03-17T05:36:53;99690.66;;;3.80;62.98
33496;BME280;19836;55.812;37.560;2024-03-17T05:39:18;99691.50;;;3.85;62.87
33496;BME280;19836;55.812;37.560;2024-03-17T05:41:46;99695.91;;;3.89;62.90
33496;BME280;19836;55.812;37.560;2024-03-17T05:44:15;99687.97;;;3.92;62.91
33496;BME280;19836;55.812;37.560;2024-03-17T05:46:41;99687.06;;;3.94;62.71
33496;BME280;19836;55.812;37.560;2024-03-17T05:49:07;99693.19;;;4.01;62.87
33496;BME280;19836;55.812;37.560;2024-03-17T05:51:33;99694.94;;;4.05;62.63
33496;BME280;19836;55.812;37.560;2024-03-17T05:53:59;99692.28;;;4.09;62.78
33496;BME280;19836;55.812;37.560;2024-03-17T05:56:28;99697.56;;;4.14;62.69
33496;BME280;19836;55.812;37.560;2024-03-17T05:58:58;99694.00;;;4.13;62.46
33496;BME280;19836;55.812;37.560;2024-03-17T06:01:24;99701.97;;;4.16;62.18
33496;BME280;19836;55.812;37.560;2024-03-17T06:03:51;99699.31;;;4.18;62.41
33496;BME280;19836;55.812;37.560;2024-03-17T06:06:16;99701.91;;;4.22;62.07
33496;BME280;19836;55.812;37.560;2024-03-17T06:08:42;99693.88;;;4.36;62.27
33496;BME280;19836;55.812;37.560;2024-03-17T06:11:08;99685.75;;;4.63;61.85
33496;BME280;19836;55.812;37.560;2024-03-17T06:13:37;99682.00;;;4.88;61.57
33496;BME280;19836;55.812;37.560;2024-03-17T06:16:04;99681.81;;;5.09;61.17
33496;BME280;19836;55.812;37.560;2024-03-17T06:18:31;99675.47;;;5.23;60.80
33496;BME280;19836;55.812;37.560;2024-03-17T06:20:58;99679.78;;;5.35;60.49
33496;BME280;19836;55.812;37.560;2024-03-17T06:23:24;99677.84;;;5.47;60.11
33496;BME280;19836;55.812;37.560;2024-03-17T06:25:53;99683.91;;;5.63;59.73
33496;BME280;19836;55.812;37.560;2024-03-17T06:28:20;99674.91;;;5.73;59.52
33496;BME280;19836;55.812;37.560;2024-03-17T06:30:59;99674.84;;;5.77;59.21
33496;BME280;19836;55.812;37.560;2024-03-17T06:33:26;99679.25;;;5.83;59.20
33496;BME280;19836;55.812;37.560;2024-03-17T06:35:58;99670.31;;;5.87;59.08
33496;BME280;19836;55.812;37.560;2024-03-17T06:38:28;99672.94;;;5.93;58.73
33496;BME280;19836;55.812;37.560;2024-03-17T06:40:54;99671.91;;;6.03;58.38
33496;BME280;19836;55.812;37.560;2024-03-17T06:43:20;99671.72;;;6.15;58.53
33496;BME280;19836;55.812;37.560;2024-03-17T06:45:59;99668.94;;;6.26;58.13
33496;BME280;19836;55.812;37.560;2024-03-17T06:48:27;99663.53;;;6.30;57.97
33496;BME280;19836;55.812;37.560;2024-03-17T06:50:54;99672.22;;;6.41;57.62
33496;BME280;19836;55.812;37.560;2024-03-17T06:53:24;99665.75;;;6.60;57.53
33496;BME280;19836;55.812;37.560;2024-03-17T06:55:59;99665.50;;;6.75;57.22
33496;BME280;19836;55.812;37.560;2024-03-17T06:58:27;99664.22;;;6.97;56.66
33496;BME280;19836;55.812;37.560;2024-03-17T07:08:03;99665.97;;;7.48;55.27
33496;BME280;19836;55.812;37.560;2024-03-17T07:10:38;99663.09;;;7.57;54.69
33496;BME280;19836;55.812;37.560;2024-03-17T07:28:59;99635.09;;;8.58;53.15
33496;BME280;19836;55.812;37.560;2024-03-17T07:31:25;99639.56;;;8.59;52.66
33496;BME280;19836;55.812;37.560;2024-03-17T07:34:36;99634.03;;;8.67;52.62
33496;BME280;19836;55.812;37.560;2024-03-17T07:37:32;99633.91;;;8.71;52.12
33496;BME280;19836;55.812;37.560;2024-03-17T07:39:58;99634.66;;;8.76;52.00
33496;BME280;19836;55.812;37.560;2024-03-17T07:42:31;99635.38;;;8.84;52.00
33496;BME280;19836;55.812;37.560;2024-03-17T07:44:58;99631.69;;;8.88;51.99
33496;BME280;19836;55.812;37.560;2024-03-17T07:47:25;99629.28;;;8.78;52.07
33496;BME280;19836;55.812;37.560;2024-03-17T07:50:01;99634.50;;;8.82;51.73
33496;BME280;19836;55.812;37.560;2024-03-17T07:52:31;99639.94;;;8.79;51.72
33496;BME280;19836;55.812;37.560;2024-03-17T08:17:42;99626.19;;;9.28;51.32
33496;BME280;19836;55.812;37.560;2024-03-17T08:21:41;99622.56;;;9.30;50.91
33496;BME280;19836;55.812;37.560;2024-03-17T08:24:31;99621.81;;;9.25;50.88
33496;BME280;19836;55.812;37.560;2024-03-17T08:37:44;99617.50;;;9.52;50.20
33496;BME280;19836;55.812;37.560;2024-03-17T08:40:14;99619.34;;;9.50;50.54
33496;BME280;19836;55.812;37.560;2024-03-17T08:42:40;99613.03;;;9.52;50.26
33496;BME280;19836;55.812;37.560;2024-03-17T08:45:10;99620.13;;;9.53;50.11
33496;BME280;19836;55.812;37.560;2024-03-17T08:47:43;99612.59;;;9.67;49.93
33496;BME280;19836;55.812;37.560;2024-03-17T08:50:13;99615.00;;;9.76;50.03
33496;BME280;19836;55.812;37.560;2024-03-17T08:52:38;99612.06;;;9.85;49.88
33496;BME280;19836;55.812;37.560;2024-03-17T08:55:05;99609.91;;;9.98;49.75
33496;BME280;19836;55.812;37.560;2024-03-17T08:57:35;99617.78;;;10.02;49.38
33496;BME280;19836;55.812;37.560;2024-03-17T09:00:01;99615.22;;;9.99;49.29
33496;BME280;19836;55.812;37.560;2024-03-17T09:02:29;99611.84;;;9.93;49.51
33496;BME280;19836;55.812;37.560;2024-03-17T09:04:55;99608.97;;;9.99;49.21
33496;BME280;19836;55.812;37.560;2024-03-17T09:07:21;99607.00;;;10.07;48.92
33496;BME280;19836;55.812;37.560;2024-03-17T09:09:47;99609.88;;;9.99;49.19
33496;BME280;19836;55.812;37.560;2024-03-17T09:12:13;99611.81;;;9.94;49.37
33496;BME280;19836;55.812;37.560;2024-03-17T09:14:40;99615.69;;;9.84;49.20
33496;BME280;19836;55.812;37.560;2024-03-17T09:17:06;99622.13;;;9.76;48.85
33496;BME280;19836;55.812;37.560;2024-03-17T09:19:32;99610.06;;;9.63;48.88
33496;BME280;19836;55.812;37.560;2024-03-17T09:21:59;99618.81;;;9.68;49.44
33496;BME280;19836;55.812;37.560;2024-03-17T09:24:25;99616.69;;;9.80;49.49
33496;BME280;19836;55.812;37.560;2024-03-17T09:26:52;99602.91;;;9.92;49.23
33496;BME280;19836;55.812;37.560;2024-03-17T09:29:18;99614.38;;;9.97;48.92
33496;BME280;19836;55.812;37.560;2024-03-17T09:31:45;99613.63;;;9.92;49.10
33496;BME280;19836;55.812;37.560;2024-03-17T10:02:27;99589.78;;;10.15;48.27
33496;BME280;19836;55.812;37.560;2024-03-17T10:05:22;99593.91;;;10.25;48.43
33496;BME280;19836;55.812;37.560;2024-03-17T10:07:52;99598.41;;;10.23;48.13
33496;BME280;19836;55.812;37.560;2024-03-17T10:10:21;99603.53;;;10.02;48.01
33496;BME280;19836;55.812;37.560;2024-03-17T10:12:51;99589.47;;;9.95;47.94
33496;BME280;19836;55.812;37.560;2024-03-17T10:15:48;99585.91;;;9.95;48.02
33496;BME280;19836;55.812;37.560;2024-03-17T10:18:22;99588.22;;;9.78;48.06
33496;BME280;19836;55.812;37.560;2024-03-17T10:20:49;99584.00;;;9.69;48.05
33496;BME280;19836;55.812;37.560;2024-03-17T10:23:20;99581.50;;;9.63;48.33
33496;BME280;19836;55.812;37.560;2024-03-17T10:25:46;99586.50;;;9.75;48.91
33496;BME280;19836;55.812;37.560;2024-03-17T10:28:14;99593.53;;;9.79;48.47
33496;BME280;19836;55.812;37.560;2024-03-17T10:30:40;99581.91;;;9.80;49.14
33496;BME280;19836;55.812;37.560;2024-03-17T10:33:22;99580.16;;;9.79;49.15
33496;BME280;19836;55.812;37.560;2024-03-17T10:35:50;99583.56;;;9.84;49.12
33496;BME280;19836;55.812;37.560;2024-03-17T10:38:23;99580.75;;;9.89;49.03
33496;BME280;19836;55.812;37.560;2024-03-17T10:40:50;99570.53;;;10.01;48.50
33496;BME280;19836;55.812;37.560;2024-03-17T10:43:18;99574.22;;;9.97;48.48
33496;BME280;19836;55.812;37.560;2024-03-17T10:45:54;99572.84;;;9.84;48.70
33496;BME280;19836;55.812;37.560;2024-03-17T10:48:52;99569.16;;;9.88;49.35
33496;BME280;19836;55.812;37.560;2024-03-17T10:51:51;99562.75;;;9.94;48.90
33496;BME280;19836;55.812;37.560;2024-03-17T10:54:30;99572.56;;;9.93;48.84
33496;BME280;19836;55.812;37.560;2024-03-17T11:01:05;99568.69;;;9.74;48.82
33496;BME280;19836;55.812;37.560;2024-03-17T11:07:22;99562.41;;;9.75;49.03
33496;BME280;19836;55.812;37.560;2024-03-17T11:09:53;99561.13;;;9.59;49.09
33496;BME280;19836;55.812;37.560;2024-03-17T11:12:43;99567.00;;;9.41;49.31
33496;BME280;19836;55.812;37.560;2024-03-17T11:17:49;99557.50;;;8.99;50.04
33496;BME280;19836;55.812;37.560;2024-03-17T11:20:25;99564.84;;;8.90;50.30
33496;BME280;19836;55.812;37.560;2024-03-17T11:22:56;99565.75;;;8.90;50.50
33496;BME280;19836;55.812;37.560;2024-03-17T11:28:05;99564.19;;;8.82;51.04
33496;BME280;19836;55.812;37.560;2024-03-17T11:33:55;99561.19;;;8.60;51.11
33496;BME280;19836;55.812;37.560;2024-03-17T11:36:42;99560.19;;;8.64;51.37
33496;BME280;19836;55.812;37.560;2024-03-17T11:39:48;99559.13;;;8.71;51.71
33496;BME280;19836;55.812;37.560;2024-03-17T11:43:17;99558.19;;;8.72;51.41
33496;BME280;19836;55.812;37.560;2024-03-17T11:45:46;99559.31;;;8.64;51.71
33496;BME280;19836;55.812;37.560;2024-03-17T11:48:14;99547.75;;;8.63;51.63
33496;BME280;19836;55.812;37.560;2024-03-17T11:50:44;99557.66;;;8.58;52.00
33496;BME280;19836;55.812;37.560;2024-03-17T11:53:11;99543.66;;;8.50;51.95
33496;BME280;19836;55.812;37.560;2024-03-17T11:55:36;99545.41;;;8.50;52.24
33496;BME280;19836;55.812;37.560;2024-03-17T11:58:03;99548.03;;;8.53;51.95
33496;BME280;19836;55.812;37.560;2024-03-17T12:00:29;99551.66;;;8.50;52.38
33496;BME280;19836;55.812;37.560;2024-03-17T12:02:54;99551.53;;;8.55;52.23
33496;BME280;19836;55.812;37.560;2024-03-17T12:05:23;99550.53;;;8.59;52.18
33496;BME280;19836;55.812;37.560;2024-03-17T12:07:50;99558.53;;;8.60;52.46
33496;BME280;19836;55.812;37.560;2024-03-17T12:10:23;99552.25;;;8.61;52.35
33496;BME280;19836;55.812;37.560;2024-03-17T12:12:52;99544.41;;;8.55;52.59
33496;BME280;19836;55.812;37.560;2024-03-17T12:15:25;99557.97;;;8.46;52.47
33496;BME280;19836;55.812;37.560;2024-03-17T12:17:58;99548.19;;;8.47;52.85
33496;BME280;19836;55.812;37.560;2024-03-17T12:21:24;99555.38;;;8.43;52.95
33496;BME280;19836;55.812;37.560;2024-03-17T12:24:20;99551.13;;;8.35;53.03
33496;BME280;19836;55.812;37.560;2024-03-17T12:26:48;99545.16;;;8.25;53.17
33496;BME280;19836;55.812;37.560;2024-03-17T12:29:36;99541.75;;;8.17;53.43
33496;BME280;19836;55.812;37.560;2024-03-17T12:32:14;99541.69;;;8.22;53.64
33496;BME280;19836;55.812;37.560;2024-03-17T12:37:50;99538.25;;;8.15;53.68
33496;BME280;19836;55.812;37.560;2024-03-17T12:40:31;99541.69;;;8.22;53.72
33496;BME280;19836;55.812;37.560;2024-03-17T12:43:03;99533.63;;;8.23;53.72
33496;BME280;19836;55.812;37.560;2024-03-17T12:45:39;99533.53;;;8.28;53.79
33496;BME280;19836;55.812;37.560;2024-03-17T12:57:05;99527.47;;;8.21;53.71
33496;BME280;19836;55.812;37.560;2024-03-17T12:59:54;99525.94;;;8.08;53.93
33496;BME280;19836;55.812;37.560;2024-03-17T13:02:24;99526.84;;;8.08;54.29
33496;BME280;19836;55.812;37.560;2024-03-17T13:08:09;99518.19;;;7.99;54.47
33496;BME280;19836;55.812;37.560;2024-03-17T13:11:02;99520.78;;;8.00;54.31
33496;BME280;19836;55.812;37.560;2024-03-17T13:14:02;99514.56;;;8.02;54.49
33496;BME280;19836;55.812;37.560;2024-03-17T13:38:24;99500.75;;;7.83;54.98
33496;BME280;19836;55.812;37.560;2024-03-17T13:48:19;99501.84;;;7.74;55.22
33496;BME280;19836;55.812;37.560;2024-03-17T13:50:52;99496.69;;;7.67;55.06
33496;BME280;19836;55.812;37.560;2024-03-17T13:53:19;99479.75;;;7.69;55.36
33496;BME280;19836;55.812;37.560;2024-03-17T13:55:45;99488.34;;;7.82;55.53
33496;BME280;19836;55.812;37.560;2024-03-17T13:58:12;99481.97;;;7.89;55.51
33496;BME280;19836;55.812;37.560;2024-03-17T14:01:46;99478.09;;;8.00;55.27
33496;BME280;19836;55.812;37.560;2024-03-17T14:04:16;99486.09;;;8.00;55.27
33496;BME280;19836;55.812;37.560;2024-03-17T14:06:44;99483.59;;;7.94;55.18
33496;BME280;19836;55.812;37.560;2024-03-17T14:09:15;99479.31;;;7.89;55.45
33496;BME280;19836;55.812;37.560;2024-03-17T14:11:43;99483.72;;;7.90;55.31
33496;BME280;19836;55.812;37.560;2024-03-17T14:17:33;99478.84;;;8.07;55.49
33496;BME280;19836;55.812;37.560;2024-03-17T14:20:06;99478.03;;;8.05;55.38
33496;BME280;19836;55.812;37.560;2024-03-17T14:23:11;99485.28;;;7.98;55.33
33496;BME280;19836;55.812;37.560;2024-03-17T14:25:39;99480.06;;;7.94;55.31
33496;BME280;19836;55.812;37.560;2024-03-17T14:28:06;99483.88;;;7.84;55.27
33496;BME280;19836;55.812;37.560;2024-03-17T14:30:33;99472.53;;;7.74;55.20
33496;BME280;19836;55.812;37.560;2024-03-17T14:33:07;99471.72;;;7.71;55.15
33496;BME280;19836;55.812;37.560;2024-03-17T14:35:36;99470.78;;;7.73;55.31
33496;BME280;19836;55.812;37.560;2024-03-17T14:38:09;99469.00;;;7.74;55.40
33496;BME280;19836;55.812;37.560;2024-03-17T14:48:19;99471.81;;;7.68;54.82
33496;BME280;19836;55.812;37.560;2024-03-17T14:50:49;99468.13;;;7.72;55.17
33496;BME280;19836;55.812;37.560;2024-03-17T14:53:15;99475.00;;;7.82;55.04
33496;BME280;19836;55.812;37.560;2024-03-17T14:55:43;99472.31;;;7.83;55.19
33496;BME280;19836;55.812;37.560;2024-03-17T14:58:11;99473.28;;;7.79;55.21
33496;BME280;19836;55.812;37.560;2024-03-17T15:00:39;99474.19;;;7.80;55.09
33496;BME280;19836;55.812;37.560;2024-03-17T15:03:17;99477.06;;;7.71;55.29
33496;BME280;19836;55.812;37.560;2024-03-17T15:05:43;99475.44;;;7.66;55.21
33496;BME280;19836;55.812;37.560;2024-03-17T15:08:12;99478.19;;;7.59;55.07
33496;BME280;19836;55.812;37.560;2024-03-17T15:10:41;99479.28;;;7.51;55.32
33496;BME280;19836;55.812;37.560;2024-03-17T15:13:08;99481.03;;;7.52;55.63
33496;BME280;19836;55.812;37.560;2024-03-17T15:16:03;99481.16;;;7.47;55.47
33496;BME280;19836;55.812;37.560;2024-03-17T15:18:33;99476.75;;;7.45;55.45
33496;BME280;19836;55.812;37.560;2024-03-17T15:21:02;99473.28;;;7.43;55.28
33496;BME280;19836;55.812;37.560;2024-03-17T15:24:39;99479.38;;;7.48;55.43
33496;BME280;19836;55.812;37.560;2024-03-17T15:27:05;99486.38;;;7.52;55.69
33496;BME280;19836;55.812;37.560;2024-03-17T15:29:35;99475.78;;;7.49;55.25
33496;BME280;19836;55.812;37.560;2024-03-17T15:32:04;99474.91;;;7.48;55.52
33496;BME280;19836;55.812;37.560;2024-03-17T15:34:49;99478.47;;;7.49;55.83
33496;BME280;19836;55.812;37.560;2024-03-17T15:37:34;99480.97;;;7.55;55.57
33496;BME280;19836;55.812;37.560;2024-03-17T15:40:00;99473.81;;;7.57;55.67
33496;BME280;19836;55.812;37.560;2024-03-17T15:43:20;99482.72;;;7.56;55.57
33496;BME280;19836;55.812;37.560;2024-03-17T15:45:49;99474.91;;;7.48;55.58
33496;BME280;19836;55.812;37.560;2024-03-17T15:48:16;99481.31;;;7.40;55.53
33496;BME280;19836;55.812;37.560;2024-03-17T15:50:53;99495.63;;;7.36;55.71
33496;BME280;19836;55.812;37.560;2024-03-17T15:53:49;99486.84;;;7.31;55.93
33496;BME280;19836;55.812;37.560;2024-03-17T15:56:18;99491.31;;;7.31;55.85